sensor_id;sensor_type;location;lat;lon;timestamp;P1;durP1;ratioP1;P2;durP2;ratioP2
10469;SDS011;5282;47.052;15.458;2023-11-19T00:00:32;5.07;;;4.67;;
10469;SDS011;5282;47.052;15.458;2023-11-19T00:02:59;4.80;;;4.50;;
10469;SDS011;5282;47.052;15.458;2023-11-19T00:05:27;4.30;;;4.10;;
10469;SDS011;5282;47.052;15.458;2023-11-19T00:07:54;4.87;;;4.47;;
10469;SDS011;5282;47.052;15.458;2023-11-19T00:10:21;4.73;;;4.43;;
10469;SDS011;5282;47.052;15.458;2023-11-19T00:12:49;4.73;;;4.43;;
10469;SDS011;5282;47.052;15.458;2023-11-19T00:15:16;5.00;;;4.60;;
10469;SDS011;5282;47.052;15.458;2023-11-19T00:17:46;4.80;;;4.50;;
10469;SDS011;5282;47.052;15.458;2023-11-19T00:20:14;5.00;;;4.60;;
10469;SDS011;5282;47.052;15.458;2023-11-19T00:22:42;5.43;;;5.03;;
10469;SDS011;5282;47.052;15.458;2023-11-19T00:25:11;5.30;;;4.90;;
10469;SDS011;5282;47.052;15.458;2023-11-19T00:27:38;5.43;;;4.97;;
10469;SDS011;5282;47.052;15.458;2023-11-19T00:30:05;5.63;;;5.23;;
10469;SDS011;5282;47.052;15.458;2023-11-19T00:32:34;4.73;;;4.50;;
10469;SDS011;5282;47.052;15.458;2023-11-19T00:35:03;5.30;;;4.90;;
10469;SDS011;5282;47.052;15.458;2023-11-19T00:37:32;5.00;;;4.60;;
10469;SDS011;5282;47.052;15.458;2023-11-19T00:39:59;5.13;;;4.73;;
10469;SDS011;5282;47.052;15.458;2023-11-19T00:42:26;4.93;;;4.60;;
10469;SDS011;5282;47.052;15.458;2023-11-19T00:44:53;4.90;;;4.60;;
10469;SDS011;5282;47.052;15.458;2023-11-19T00:47:20;4.57;;;4.30;;
10469;SDS011;5282;47.052;15.458;2023-11-19T00:49:48;4.87;;;4.53;;
10469;SDS011;5282;47.052;15.458;2023-11-19T00:52:16;5.30;;;4.90;;
10469;SDS011;5282;47.052;15.458;2023-11-19T00:54:43;4.60;;;4.30;;
10469;SDS011;5282;47.052;15.458;2023-11-19T00:57:10;4.70;;;4.40;;
10469;SDS011;5282;47.052;15.458;2023-11-19T00:59:37;4.80;;;4.50;;
10469;SDS011;5282;47.052;15.458;2023-11-19T01:02:04;5.67;;;5.20;;
10469;SDS011;5282;47.052;15.458;2023-11-19T01:04:33;5.10;;;4.80;;
10469;SDS011;5282;47.052;15.458;2023-11-19T01:07:01;4.73;;;4.43;;
10469;SDS011;5282;47.052;15.458;2023-11-19T01:09:30;5.57;;;4.93;;
10469;SDS011;5282;47.052;15.458;2023-11-19T01:11:59;4.70;;;4.30;;
10469;SDS011;5282;47.052;15.458;2023-11-19T01:14:27;4.73;;;4.43;;
10469;SDS011;5282;47.052;15.458;2023-11-19T01:16:54;4.87;;;4.57;;
10469;SDS011;5282;47.052;15.458;2023-11-19T01:19:21;4.90;;;4.50;;
10469;SDS011;5282;47.052;15.458;2023-11-19T01:21:49;4.50;;;4.20;;
10469;SDS011;5282;47.052;15.458;2023-11-19T01:24:17;4.50;;;4.30;;
10469;SDS011;5282;47.052;15.458;2023-11-19T01:26:45;4.13;;;3.93;;
10469;SDS011;5282;47.052;15.458;2023-11-19T01:29:13;4.83;;;4.50;;
10469;SDS011;5282;47.052;15.458;2023-11-19T01:31:40;4.60;;;4.30;;
10469;SDS011;5282;47.052;15.458;2023-11-19T01:34:07;4.50;;;4.20;;
10469;SDS011;5282;47.052;15.458;2023-11-19T01:36:34;5.17;;;4.83;;
10469;SDS011;5282;47.052;15.458;2023-11-19T01:39:01;4.40;;;4.20;;
10469;SDS011;5282;47.052;15.458;2023-11-19T01:41:29;4.40;;;4.20;;
10469;SDS011;5282;47.052;15.458;2023-11-19T01:44:01;4.73;;;4.43;;
10469;SDS011;5282;47.052;15.458;2023-11-19T01:46:28;3.70;;;3.50;;
10469;SDS011;5282;47.052;15.458;2023-11-19T01:48:58;4.07;;;3.87;;
10469;SDS011;5282;47.052;15.458;2023-11-19T01:51:26;4.37;;;4.10;;
10469;SDS011;5282;47.052;15.458;2023-11-19T01:53:54;4.00;;;3.80;;
10469;SDS011;5282;47.052;15.458;2023-11-19T01:56:22;4.00;;;3.80;;
10469;SDS011;5282;47.052;15.458;2023-11-19T01:58:50;4.63;;;4.33;;
10469;SDS011;5282;47.052;15.458;2023-11-19T02:01:20;4.70;;;4.40;;
10469;SDS011;5282;47.052;15.458;2023-11-19T02:03:55;4.43;;;4.13;;
10469;SDS011;5282;47.052;15.458;2023-11-19T02:06:28;4.37;;;4.07;;
10469;SDS011;5282;47.052;15.458;2023-11-19T02:08:58;4.77;;;4.40;;
10469;SDS011;5282;47.052;15.458;2023-11-19T02:11:28;4.27;;;3.97;;
10469;SDS011;5282;47.052;15.458;2023-11-19T02:14:00;3.93;;;3.73;;
10469;SDS011;5282;47.052;15.458;2023-11-19T02:16:30;3.80;;;3.60;;
10469;SDS011;5282;47.052;15.458;2023-11-19T02:18:57;5.50;;;4.40;;
10469;SDS011;5282;47.052;15.458;2023-11-19T02:21:24;4.40;;;4.20;;
10469;SDS011;5282;47.052;15.458;2023-11-19T02:23:51;4.53;;;4.20;;
10469;SDS011;5282;47.052;15.458;2023-11-19T02:26:22;3.87;;;3.63;;
10469;SDS011;5282;47.052;15.458;2023-11-19T02:28:56;3.83;;;3.63;;
10469;SDS011;5282;47.052;15.458;2023-11-19T02:31:24;4.43;;;4.23;;
10469;SDS011;5282;47.052;15.458;2023-11-19T02:33:52;4.40;;;4.10;;
10469;SDS011;5282;47.052;15.458;2023-11-19T02:36:20;4.50;;;4.20;;
10469;SDS011;5282;47.052;15.458;2023-11-19T02:38:47;5.07;;;4.67;;
10469;SDS011;5282;47.052;15.458;2023-11-19T02:41:15;4.30;;;4.00;;
10469;SDS011;5282;47.052;15.458;2023-11-19T02:43:42;4.50;;;4.20;;
10469;SDS011;5282;47.052;15.458;2023-11-19T02:46:10;4.90;;;4.60;;
10469;SDS011;5282;47.052;15.458;2023-11-19T02:48:37;4.43;;;4.23;;
10469;SDS011;5282;47.052;15.458;2023-11-19T02:51:05;5.00;;;4.70;;
10469;SDS011;5282;47.052;15.458;2023-11-19T02:53:34;4.50;;;4.20;;
10469;SDS011;5282;47.052;15.458;2023-11-19T02:56:02;4.73;;;4.33;;
10469;SDS011;5282;47.052;15.458;2023-11-19T02:58:42;4.60;;;4.30;;
10469;SDS011;5282;47.052;15.458;2023-11-19T03:01:11;4.70;;;4.40;;
10469;SDS011;5282;47.052;15.458;2023-11-19T03:03:49;4.50;;;4.17;;
10469;SDS011;5282;47.052;15.458;2023-11-19T03:06:19;5.00;;;4.60;;
10469;SDS011;5282;47.052;15.458;2023-11-19T03:08:47;4.57;;;4.27;;
10469;SDS011;5282;47.052;15.458;2023-11-19T03:11:14;4.27;;;3.97;;
10469;SDS011;5282;47.052;15.458;2023-11-19T03:14:01;4.17;;;3.87;;
10469;SDS011;5282;47.052;15.458;2023-11-19T03:16:31;4.37;;;4.07;;
10469;SDS011;5282;47.052;15.458;2023-11-19T03:18:59;4.97;;;4.57;;
10469;SDS011;5282;47.052;15.458;2023-11-19T03:21:27;4.97;;;4.67;;
10469;SDS011;5282;47.052;15.458;2023-11-19T03:23:57;4.53;;;4.27;;
10469;SDS011;5282;47.052;15.458;2023-11-19T03:26:25;4.57;;;4.37;;
10469;SDS011;5282;47.052;15.458;2023-11-19T03:28:53;5.40;;;5.00;;
10469;SDS011;5282;47.052;15.458;2023-11-19T03:31:22;5.40;;;4.90;;
10469;SDS011;5282;47.052;15.458;2023-11-19T03:33:51;4.97;;;4.57;;
10469;SDS011;5282;47.052;15.458;2023-11-19T03:36:18;4.93;;;4.63;;
10469;SDS011;5282;47.052;15.458;2023-11-19T03:38:45;4.93;;;4.53;;
10469;SDS011;5282;47.052;15.458;2023-11-19T03:41:12;5.47;;;5.03;;
10469;SDS011;5282;47.052;15.458;2023-11-19T03:43:39;4.70;;;4.40;;
10469;SDS011;5282;47.052;15.458;2023-11-19T03:46:15;4.50;;;4.20;;
10469;SDS011;5282;47.052;15.458;2023-11-19T03:48:43;5.03;;;4.73;;
10469;SDS011;5282;47.052;15.458;2023-11-19T03:51:12;4.97;;;4.67;;
10469;SDS011;5282;47.052;15.458;2023-11-19T03:53:41;5.10;;;4.70;;
10469;SDS011;5282;47.052;15.458;2023-11-19T03:56:09;8.07;;;4.77;;
10469;SDS011;5282;47.052;15.458;2023-11-19T03:58:36;4.87;;;4.57;;
10469;SDS011;5282;47.052;15.458;2023-11-19T04:01:04;5.37;;;5.07;;
10469;SDS011;5282;47.052;15.458;2023-11-19T04:03:31;5.10;;;4.80;;
10469;SDS011;5282;47.052;15.458;2023-11-19T04:05:58;5.13;;;4.83;;
10469;SDS011;5282;47.052;15.458;2023-11-19T04:08:27;4.93;;;4.60;;
10469;SDS011;5282;47.052;15.458;2023-11-19T04:10:54;5.27;;;4.87;;
10469;SDS011;5282;47.052;15.458;2023-11-19T04:13:21;5.60;;;5.20;;
10469;SDS011;5282;47.052;15.458;2023-11-19T04:15:49;4.83;;;4.53;;
10469;SDS011;5282;47.052;15.458;2023-11-19T04:18:16;5.33;;;4.97;;
10469;SDS011;5282;47.052;15.458;2023-11-19T04:20:43;4.80;;;4.60;;
10469;SDS011;5282;47.052;15.458;2023-11-19T04:23:09;4.67;;;4.40;;
10469;SDS011;5282;47.052;15.458;2023-11-19T04:25:38;5.07;;;4.73;;
10469;SDS011;5282;47.052;15.458;2023-11-19T04:28:04;5.17;;;4.87;;
10469;SDS011;5282;47.052;15.458;2023-11-19T04:30:31;5.07;;;4.77;;
10469;SDS011;5282;47.052;15.458;2023-11-19T04:32:58;5.20;;;4.80;;
10469;SDS011;5282;47.052;15.458;2023-11-19T04:35:25;4.57;;;4.37;;
10469;SDS011;5282;47.052;15.458;2023-11-19T04:37:52;4.63;;;4.43;;
10469;SDS011;5282;47.052;15.458;2023-11-19T04:40:18;4.77;;;4.57;;
10469;SDS011;5282;47.052;15.458;2023-11-19T04:42:49;5.20;;;4.70;;
10469;SDS011;5282;47.052;15.458;2023-11-19T04:45:16;5.17;;;4.87;;
10469;SDS011;5282;47.052;15.458;2023-11-19T04:47:42;5.40;;;5.00;;
10469;SDS011;5282;47.052;15.458;2023-11-19T04:50:09;4.90;;;4.60;;
10469;SDS011;5282;47.052;15.458;2023-11-19T04:52:37;4.67;;;4.37;;
10469;SDS011;5282;47.052;15.458;2023-11-19T04:55:05;4.87;;;4.47;;
10469;SDS011;5282;47.052;15.458;2023-11-19T04:57:33;5.00;;;4.70;;
10469;SDS011;5282;47.052;15.458;2023-11-19T05:00:02;5.27;;;4.97;;
10469;SDS011;5282;47.052;15.458;2023-11-19T05:02:30;5.57;;;5.17;;
10469;SDS011;5282;47.052;15.458;2023-11-19T05:04:57;4.83;;;4.53;;
10469;SDS011;5282;47.052;15.458;2023-11-19T05:07:24;5.50;;;5.10;;
10469;SDS011;5282;47.052;15.458;2023-11-19T05:09:51;5.97;;;5.40;;
10469;SDS011;5282;47.052;15.458;2023-11-19T05:12:18;5.33;;;5.00;;
10469;SDS011;5282;47.052;15.458;2023-11-19T05:14:45;5.57;;;5.27;;
10469;SDS011;5282;47.052;15.458;2023-11-19T05:17:16;4.97;;;4.67;;
10469;SDS011;5282;47.052;15.458;2023-11-19T05:19:44;5.80;;;5.30;;
10469;SDS011;5282;47.052;15.458;2023-11-19T05:22:11;5.10;;;4.80;;
10469;SDS011;5282;47.052;15.458;2023-11-19T05:24:38;5.40;;;5.10;;
10469;SDS011;5282;47.052;15.458;2023-11-19T05:27:06;5.93;;;5.50;;
10469;SDS011;5282;47.052;15.458;2023-11-19T05:29:33;5.30;;;4.90;;
10469;SDS011;5282;47.052;15.458;2023-11-19T05:32:00;5.43;;;5.10;;
10469;SDS011;5282;47.052;15.458;2023-11-19T05:34:28;5.17;;;4.80;;
10469;SDS011;5282;47.052;15.458;2023-11-19T05:36:56;5.13;;;4.67;;
10469;SDS011;5282;47.052;15.458;2023-11-19T05:39:23;5.57;;;5.17;;
10469;SDS011;5282;47.052;15.458;2023-11-19T05:41:50;4.80;;;4.50;;
10469;SDS011;5282;47.052;15.458;2023-11-19T05:44:17;6.93;;;4.80;;
10469;SDS011;5282;47.052;15.458;2023-11-19T05:46:44;5.40;;;4.90;;
10469;SDS011;5282;47.052;15.458;2023-11-19T05:49:11;5.43;;;5.03;;
10469;SDS011;5282;47.052;15.458;2023-11-19T05:51:40;5.43;;;5.13;;
10469;SDS011;5282;47.052;15.458;2023-11-19T05:54:07;5.67;;;5.27;;
10469;SDS011;5282;47.052;15.458;2023-11-19T05:56:35;5.80;;;5.30;;
10469;SDS011;5282;47.052;15.458;2023-11-19T05:59:02;5.53;;;5.13;;
10469;SDS011;5282;47.052;15.458;2023-11-19T06:01:33;5.37;;;4.73;;
10469;SDS011;5282;47.052;15.458;2023-11-19T06:04:01;5.27;;;4.93;;
10469;SDS011;5282;47.052;15.458;2023-11-19T06:06:27;12.23;;;9.03;;
10469;SDS011;5282;47.052;15.458;2023-11-19T06:08:56;8.13;;;7.43;;
10469;SDS011;5282;47.052;15.458;2023-11-19T06:11:22;9.17;;;7.67;;
10469;SDS011;5282;47.052;15.458;2023-11-19T06:13:52;7.13;;;6.63;;
10469;SDS011;5282;47.052;15.458;2023-11-19T06:16:19;6.40;;;6.00;;
10469;SDS011;5282;47.052;15.458;2023-11-19T06:18:46;6.07;;;5.57;;
10469;SDS011;5282;47.052;15.458;2023-11-19T06:21:13;7.47;;;6.87;;
10469;SDS011;5282;47.052;15.458;2023-11-19T06:23:40;7.40;;;6.80;;
10469;SDS011;5282;47.052;15.458;2023-11-19T06:26:09;7.30;;;6.70;;
10469;SDS011;5282;47.052;15.458;2023-11-19T06:28:35;7.77;;;6.97;;
10469;SDS011;5282;47.052;15.458;2023-11-19T06:31:03;6.67;;;6.17;;
10469;SDS011;5282;47.052;15.458;2023-11-19T06:33:30;6.00;;;5.57;;
10469;SDS011;5282;47.052;15.458;2023-11-19T06:35:57;6.20;;;5.67;;
10469;SDS011;5282;47.052;15.458;2023-11-19T06:38:25;5.30;;;4.93;;
10469;SDS011;5282;47.052;15.458;2023-11-19T06:40:52;6.20;;;5.57;;
10469;SDS011;5282;47.052;15.458;2023-11-19T06:43:20;5.90;;;5.50;;
10469;SDS011;5282;47.052;15.458;2023-11-19T06:45:47;7.13;;;5.80;;
10469;SDS011;5282;47.052;15.458;2023-11-19T06:48:14;6.27;;;5.87;;
10469;SDS011;5282;47.052;15.458;2023-11-19T06:50:41;6.63;;;5.63;;
10469;SDS011;5282;47.052;15.458;2023-11-19T06:53:09;5.77;;;5.27;;
10469;SDS011;5282;47.052;15.458;2023-11-19T06:55:36;6.10;;;5.60;;
10469;SDS011;5282;47.052;15.458;2023-11-19T06:58:03;5.40;;;5.10;;
10469;SDS011;5282;47.052;15.458;2023-11-19T07:00:33;6.27;;;5.83;;
10469;SDS011;5282;47.052;15.458;2023-11-19T07:03:01;6.10;;;5.70;;
10469;SDS011;5282;47.052;15.458;2023-11-19T07:05:28;5.60;;;5.20;;
10469;SDS011;5282;47.052;15.458;2023-11-19T07:07:55;6.30;;;5.80;;
10469;SDS011;5282;47.052;15.458;2023-11-19T07:10:22;6.00;;;5.50;;
10469;SDS011;5282;47.052;15.458;2023-11-19T07:12:49;6.10;;;5.60;;
10469;SDS011;5282;47.052;15.458;2023-11-19T07:15:16;5.83;;;5.43;;
10469;SDS011;5282;47.052;15.458;2023-11-19T07:17:45;6.50;;;6.10;;
10469;SDS011;5282;47.052;15.458;2023-11-19T07:20:13;6.33;;;5.93;;
10469;SDS011;5282;47.052;15.458;2023-11-19T07:22:42;6.00;;;5.50;;
10469;SDS011;5282;47.052;15.458;2023-11-19T07:25:10;5.90;;;5.50;;
10469;SDS011;5282;47.052;15.458;2023-11-19T07:27:39;5.70;;;5.20;;
10469;SDS011;5282;47.052;15.458;2023-11-19T07:30:06;6.03;;;5.57;;
10469;SDS011;5282;47.052;15.458;2023-11-19T07:32:33;5.97;;;5.57;;
10469;SDS011;5282;47.052;15.458;2023-11-19T07:35:01;6.17;;;5.60;;
10469;SDS011;5282;47.052;15.458;2023-11-19T07:37:29;5.83;;;5.37;;
10469;SDS011;5282;47.052;15.458;2023-11-19T07:39:56;5.60;;;5.20;;
10469;SDS011;5282;47.052;15.458;2023-11-19T07:42:23;5.43;;;5.10;;
10469;SDS011;5282;47.052;15.458;2023-11-19T07:44:50;5.60;;;5.30;;
10469;SDS011;5282;47.052;15.458;2023-11-19T07:47:17;5.27;;;4.87;;
10469;SDS011;5282;47.052;15.458;2023-11-19T07:49:44;6.20;;;5.80;;
10469;SDS011;5282;47.052;15.458;2023-11-19T07:52:13;6.13;;;5.73;;
10469;SDS011;5282;47.052;15.458;2023-11-19T07:54:40;6.07;;;5.63;;
10469;SDS011;5282;47.052;15.458;2023-11-19T07:57:07;5.17;;;4.87;;
10469;SDS011;5282;47.052;15.458;2023-11-19T07:59:34;5.90;;;5.50;;
10469;SDS011;5282;47.052;15.458;2023-11-19T08:02:02;5.73;;;5.40;;
10469;SDS011;5282;47.052;15.458;2023-11-19T08:04:30;6.00;;;5.57;;
10469;SDS011;5282;47.052;15.458;2023-11-19T08:06:57;6.30;;;5.80;;
10469;SDS011;5282;47.052;15.458;2023-11-19T08:09:25;5.63;;;5.23;;
10469;SDS011;5282;47.052;15.458;2023-11-19T08:11:53;6.40;;;5.90;;
10469;SDS011;5282;47.052;15.458;2023-11-19T08:14:21;6.90;;;6.30;;
10469;SDS011;5282;47.052;15.458;2023-11-19T08:16:49;6.23;;;5.63;;
10469;SDS011;5282;47.052;15.458;2023-11-19T08:19:16;6.10;;;5.70;;
10469;SDS011;5282;47.052;15.458;2023-11-19T08:21:43;6.63;;;6.13;;
10469;SDS011;5282;47.052;15.458;2023-11-19T08:24:10;6.50;;;6.00;;
10469;SDS011;5282;47.052;15.458;2023-11-19T08:26:38;7.07;;;6.40;;
10469;SDS011;5282;47.052;15.458;2023-11-19T08:29:05;7.30;;;6.70;;
10469;SDS011;5282;47.052;15.458;2023-11-19T08:31:32;7.00;;;6.50;;
10469;SDS011;5282;47.052;15.458;2023-11-19T08:33:58;6.57;;;6.10;;
10469;SDS011;5282;47.052;15.458;2023-11-19T08:36:25;7.33;;;6.60;;
10469;SDS011;5282;47.052;15.458;2023-11-19T08:38:53;6.50;;;6.00;;
10469;SDS011;5282;47.052;15.458;2023-11-19T08:41:20;6.80;;;6.20;;
10469;SDS011;5282;47.052;15.458;2023-11-19T08:43:51;7.17;;;6.57;;
10469;SDS011;5282;47.052;15.458;2023-11-19T08:46:18;6.57;;;5.87;;
10469;SDS011;5282;47.052;15.458;2023-11-19T08:48:45;5.97;;;5.43;;
10469;SDS011;5282;47.052;15.458;2023-11-19T08:51:12;5.83;;;5.43;;
10469;SDS011;5282;47.052;15.458;2023-11-19T08:53:39;6.23;;;5.73;;
10469;SDS011;5282;47.052;15.458;2023-11-19T08:56:07;5.17;;;4.87;;
10469;SDS011;5282;47.052;15.458;2023-11-19T08:58:34;6.53;;;6.03;;
10469;SDS011;5282;47.052;15.458;2023-11-19T09:01:02;5.73;;;5.33;;
10469;SDS011;5282;47.052;15.458;2023-11-19T09:03:31;6.73;;;5.80;;
10469;SDS011;5282;47.052;15.458;2023-11-19T09:05:58;5.40;;;5.10;;
10469;SDS011;5282;47.052;15.458;2023-11-19T09:08:27;4.43;;;4.23;;
10469;SDS011;5282;47.052;15.458;2023-11-19T09:10:53;5.40;;;5.10;;
10469;SDS011;5282;47.052;15.458;2023-11-19T09:13:20;5.60;;;5.13;;
10469;SDS011;5282;47.052;15.458;2023-11-19T09:15:48;6.03;;;5.30;;
10469;SDS011;5282;47.052;15.458;2023-11-19T09:18:16;5.23;;;4.83;;
10469;SDS011;5282;47.052;15.458;2023-11-19T09:20:44;4.80;;;4.50;;
10469;SDS011;5282;47.052;15.458;2023-11-19T09:23:10;5.37;;;5.07;;
10469;SDS011;5282;47.052;15.458;2023-11-19T09:25:38;5.90;;;5.40;;
10469;SDS011;5282;47.052;15.458;2023-11-19T09:28:04;5.27;;;4.87;;
10469;SDS011;5282;47.052;15.458;2023-11-19T09:30:31;5.30;;;5.00;;
10469;SDS011;5282;47.052;15.458;2023-11-19T09:32:59;4.57;;;4.37;;
10469;SDS011;5282;47.052;15.458;2023-11-19T09:35:27;4.80;;;4.50;;
10469;SDS011;5282;47.052;15.458;2023-11-19T09:37:55;4.90;;;4.60;;
10469;SDS011;5282;47.052;15.458;2023-11-19T09:40:22;4.83;;;4.53;;
10469;SDS011;5282;47.052;15.458;2023-11-19T09:42:50;5.30;;;5.00;;
10469;SDS011;5282;47.052;15.458;2023-11-19T09:45:17;5.13;;;4.83;;
10469;SDS011;5282;47.052;15.458;2023-11-19T09:47:47;5.37;;;5.07;;
10469;SDS011;5282;47.052;15.458;2023-11-19T09:50:16;5.77;;;5.37;;
10469;SDS011;5282;47.052;15.458;2023-11-19T09:52:45;4.83;;;4.63;;
10469;SDS011;5282;47.052;15.458;2023-11-19T09:55:13;4.73;;;4.43;;
10469;SDS011;5282;47.052;15.458;2023-11-19T09:57:40;4.80;;;4.43;;
10469;SDS011;5282;47.052;15.458;2023-11-19T10:00:09;4.87;;;4.57;;
10469;SDS011;5282;47.052;15.458;2023-11-19T10:02:37;4.47;;;4.20;;
10469;SDS011;5282;47.052;15.458;2023-11-19T10:05:06;4.33;;;4.03;;
10469;SDS011;5282;47.052;15.458;2023-11-19T10:07:34;4.43;;;4.13;;
10469;SDS011;5282;47.052;15.458;2023-11-19T10:10:04;4.27;;;4.07;;
10469;SDS011;5282;47.052;15.458;2023-11-19T10:12:33;4.00;;;3.80;;
10469;SDS011;5282;47.052;15.458;2023-11-19T10:15:00;3.90;;;3.70;;
10469;SDS011;5282;47.052;15.458;2023-11-19T10:17:28;3.60;;;3.43;;
10469;SDS011;5282;47.052;15.458;2023-11-19T10:19:55;4.00;;;3.83;;
10469;SDS011;5282;47.052;15.458;2023-11-19T10:22:23;3.57;;;3.37;;
10469;SDS011;5282;47.052;15.458;2023-11-19T10:24:52;3.70;;;3.50;;
10469;SDS011;5282;47.052;15.458;2023-11-19T10:27:20;3.67;;;3.47;;
10469;SDS011;5282;47.052;15.458;2023-11-19T10:29:50;3.70;;;3.60;;
10469;SDS011;5282;47.052;15.458;2023-11-19T10:32:17;3.63;;;3.43;;
10469;SDS011;5282;47.052;15.458;2023-11-19T10:34:44;3.80;;;3.60;;
10469;SDS011;5282;47.052;15.458;2023-11-19T10:37:13;3.40;;;3.30;;
10469;SDS011;5282;47.052;15.458;2023-11-19T10:39:55;3.70;;;3.47;;
10469;SDS011;5282;47.052;15.458;2023-11-19T10:42:23;3.97;;;3.77;;
10469;SDS011;5282;47.052;15.458;2023-11-19T10:44:50;3.83;;;3.53;;
10469;SDS011;5282;47.052;15.458;2023-11-19T10:47:18;3.53;;;3.43;;
10469;SDS011;5282;47.052;15.458;2023-11-19T10:49:46;3.90;;;3.70;;
10469;SDS011;5282;47.052;15.458;2023-11-19T10:52:14;3.47;;;3.30;;
10469;SDS011;5282;47.052;15.458;2023-11-19T10:54:44;3.57;;;3.33;;
10469;SDS011;5282;47.052;15.458;2023-11-19T10:57:17;3.67;;;3.43;;
10469;SDS011;5282;47.052;15.458;2023-11-19T10:59:49;4.17;;;3.97;;
10469;SDS011;5282;47.052;15.458;2023-11-19T11:02:19;4.10;;;3.90;;
10469;SDS011;5282;47.052;15.458;2023-11-19T11:04:51;3.80;;;3.60;;
10469;SDS011;5282;47.052;15.458;2023-11-19T11:07:19;4.00;;;3.90;;
10469;SDS011;5282;47.052;15.458;2023-11-19T11:09:51;4.27;;;3.97;;
10469;SDS011;5282;47.052;15.458;2023-11-19T11:12:19;4.40;;;4.20;;
10469;SDS011;5282;47.052;15.458;2023-11-19T11:14:50;3.97;;;3.67;;
10469;SDS011;5282;47.052;15.458;2023-11-19T11:17:20;4.30;;;4.00;;
10469;SDS011;5282;47.052;15.458;2023-11-19T11:19:54;6.20;;;5.63;;
10469;SDS011;5282;47.052;15.458;2023-11-19T11:22:21;8.83;;;7.30;;
10469;SDS011;5282;47.052;15.458;2023-11-19T11:24:56;4.67;;;4.40;;
10469;SDS011;5282;47.052;15.458;2023-11-19T11:27:41;5.00;;;4.70;;
10469;SDS011;5282;47.052;15.458;2023-11-19T11:30:31;4.60;;;4.37;;
10469;SDS011;5282;47.052;15.458;2023-11-19T11:33:12;4.50;;;4.30;;
10469;SDS011;5282;47.052;15.458;2023-11-19T11:35:53;4.63;;;4.43;;
10469;SDS011;5282;47.052;15.458;2023-11-19T11:38:30;4.90;;;4.70;;
10469;SDS011;5282;47.052;15.458;2023-11-19T11:41:16;5.10;;;4.90;;
10469;SDS011;5282;47.052;15.458;2023-11-19T11:43:45;4.87;;;4.57;;
10469;SDS011;5282;47.052;15.458;2023-11-19T11:49:26;4.33;;;4.13;;
10469;SDS011;5282;47.052;15.458;2023-11-19T11:51:58;4.70;;;4.50;;
10469;SDS011;5282;47.052;15.458;2023-11-19T11:54:26;5.37;;;5.00;;
10469;SDS011;5282;47.052;15.458;2023-11-19T11:59:46;4.20;;;4.00;;
10469;SDS011;5282;47.052;15.458;2023-11-19T12:02:16;5.13;;;4.80;;
10469;SDS011;5282;47.052;15.458;2023-11-19T12:04:47;4.53;;;4.33;;
10469;SDS011;5282;47.052;15.458;2023-11-19T12:07:16;4.73;;;4.43;;
10469;SDS011;5282;47.052;15.458;2023-11-19T12:09:46;4.97;;;4.67;;
10469;SDS011;5282;47.052;15.458;2023-11-19T12:12:18;4.63;;;4.43;;
10469;SDS011;5282;47.052;15.458;2023-11-19T12:14:59;4.70;;;4.50;;
10469;SDS011;5282;47.052;15.458;2023-11-19T12:17:46;5.20;;;4.80;;
10469;SDS011;5282;47.052;15.458;2023-11-19T12:20:17;4.73;;;4.53;;
10469;SDS011;5282;47.052;15.458;2023-11-19T12:22:46;4.80;;;4.60;;
10469;SDS011;5282;47.052;15.458;2023-11-19T12:25:14;4.57;;;4.27;;
10469;SDS011;5282;47.052;15.458;2023-11-19T12:27:44;4.77;;;4.47;;
10469;SDS011;5282;47.052;15.458;2023-11-19T12:30:11;4.80;;;4.53;;
10469;SDS011;5282;47.052;15.458;2023-11-19T12:32:39;4.43;;;4.13;;
10469;SDS011;5282;47.052;15.458;2023-11-19T12:35:08;4.43;;;4.13;;
10469;SDS011;5282;47.052;15.458;2023-11-19T12:37:39;4.50;;;4.30;;
10469;SDS011;5282;47.052;15.458;2023-11-19T12:40:10;5.17;;;4.77;;
10469;SDS011;5282;47.052;15.458;2023-11-19T12:42:41;4.13;;;3.83;;
10469;SDS011;5282;47.052;15.458;2023-11-19T12:45:08;4.70;;;4.40;;
10469;SDS011;5282;47.052;15.458;2023-11-19T12:47:37;4.10;;;3.90;;
10469;SDS011;5282;47.052;15.458;2023-11-19T12:50:05;4.07;;;3.87;;
10469;SDS011;5282;47.052;15.458;2023-11-19T12:52:35;4.10;;;3.90;;
10469;SDS011;5282;47.052;15.458;2023-11-19T12:55:02;4.97;;;4.67;;
10469;SDS011;5282;47.052;15.458;2023-11-19T12:57:36;4.90;;;4.50;;
10469;SDS011;5282;47.052;15.458;2023-11-19T13:00:04;4.37;;;4.17;;
10469;SDS011;5282;47.052;15.458;2023-11-19T13:02:44;4.87;;;4.60;;
10469;SDS011;5282;47.052;15.458;2023-11-19T13:05:22;4.20;;;3.97;;
10469;SDS011;5282;47.052;15.458;2023-11-19T13:07:53;4.23;;;4.03;;
10469;SDS011;5282;47.052;15.458;2023-11-19T13:10:24;4.13;;;3.93;;
10469;SDS011;5282;47.052;15.458;2023-11-19T13:13:04;3.73;;;3.63;;
10469;SDS011;5282;47.052;15.458;2023-11-19T13:15:33;3.60;;;3.50;;
10469;SDS011;5282;47.052;15.458;2023-11-19T13:18:01;3.50;;;3.40;;
10469;SDS011;5282;47.052;15.458;2023-11-19T13:20:29;3.90;;;3.70;;
10469;SDS011;5282;47.052;15.458;2023-11-19T13:22:59;3.60;;;3.40;;
10469;SDS011;5282;47.052;15.458;2023-11-19T13:25:27;3.57;;;3.40;;
10469;SDS011;5282;47.052;15.458;2023-11-19T13:27:54;3.30;;;3.20;;
10469;SDS011;5282;47.052;15.458;2023-11-19T13:30:22;3.00;;;2.90;;
10469;SDS011;5282;47.052;15.458;2023-11-19T13:32:49;3.30;;;3.20;;
10469;SDS011;5282;47.052;15.458;2023-11-19T13:35:16;3.77;;;3.50;;
10469;SDS011;5282;47.052;15.458;2023-11-19T13:37:44;3.30;;;3.10;;
10469;SDS011;5282;47.052;15.458;2023-11-19T13:40:12;3.00;;;2.90;;
10469;SDS011;5282;47.052;15.458;2023-11-19T13:42:40;2.90;;;2.80;;
10469;SDS011;5282;47.052;15.458;2023-11-19T13:45:08;3.03;;;2.90;;
10469;SDS011;5282;47.052;15.458;2023-11-19T13:47:38;2.93;;;2.83;;
10469;SDS011;5282;47.052;15.458;2023-11-19T13:50:07;2.80;;;2.70;;
10469;SDS011;5282;47.052;15.458;2023-11-19T13:52:35;2.70;;;2.60;;
10469;SDS011;5282;47.052;15.458;2023-11-19T13:55:04;3.13;;;2.93;;
10469;SDS011;5282;47.052;15.458;2023-11-19T13:57:35;3.47;;;3.27;;
10469;SDS011;5282;47.052;15.458;2023-11-19T14:00:02;2.90;;;2.80;;
10469;SDS011;5282;47.052;15.458;2023-11-19T14:02:31;3.50;;;3.30;;
10469;SDS011;5282;47.052;15.458;2023-11-19T14:04:58;3.47;;;3.27;;
10469;SDS011;5282;47.052;15.458;2023-11-19T14:07:25;2.90;;;2.80;;
10469;SDS011;5282;47.052;15.458;2023-11-19T14:09:53;3.27;;;3.10;;
10469;SDS011;5282;47.052;15.458;2023-11-19T14:12:20;3.27;;;3.07;;
10469;SDS011;5282;47.052;15.458;2023-11-19T14:14:48;3.10;;;3.00;;
10469;SDS011;5282;47.052;15.458;2023-11-19T14:17:15;3.10;;;3.00;;
10469;SDS011;5282;47.052;15.458;2023-11-19T14:19:42;3.60;;;3.50;;
10469;SDS011;5282;47.052;15.458;2023-11-19T14:22:09;3.30;;;3.10;;
10469;SDS011;5282;47.052;15.458;2023-11-19T14:24:37;2.97;;;2.80;;
10469;SDS011;5282;47.052;15.458;2023-11-19T14:27:06;3.40;;;3.30;;
10469;SDS011;5282;47.052;15.458;2023-11-19T14:29:32;3.17;;;3.03;;
10469;SDS011;5282;47.052;15.458;2023-11-19T14:32:01;3.10;;;2.90;;
10469;SDS011;5282;47.052;15.458;2023-11-19T14:34:28;3.50;;;3.20;;
10469;SDS011;5282;47.052;15.458;2023-11-19T14:36:56;3.23;;;3.03;;
10469;SDS011;5282;47.052;15.458;2023-11-19T14:39:23;2.83;;;2.70;;
10469;SDS011;5282;47.052;15.458;2023-11-19T14:41:49;2.87;;;2.77;;
10469;SDS011;5282;47.052;15.458;2023-11-19T14:44:17;2.90;;;2.80;;
10469;SDS011;5282;47.052;15.458;2023-11-19T14:46:45;2.70;;;2.60;;
10469;SDS011;5282;47.052;15.458;2023-11-19T14:49:14;2.90;;;2.80;;
10469;SDS011;5282;47.052;15.458;2023-11-19T14:51:41;2.67;;;2.57;;
10469;SDS011;5282;47.052;15.458;2023-11-19T14:54:07;3.07;;;2.87;;
10469;SDS011;5282;47.052;15.458;2023-11-19T14:56:34;2.70;;;2.60;;
10469;SDS011;5282;47.052;15.458;2023-11-19T14:59:03;2.80;;;2.70;;
10469;SDS011;5282;47.052;15.458;2023-11-19T15:01:30;2.60;;;2.50;;